Time;durP1;ratioP1;P1;durP2;ratioP2;P2;SDS_P1;SDS_P2;PMS_P1;PMS_P2;Temp;Humidity;BMP_temperature;BMP_pressure;BME280_temperature;BME280_humidity;BME280_pressure;Samples;Min_cycle;Max_cycle;Signal;HPM_P1;HPM_P2
2024/01/26 00:01:03;;;;;;;30.40;16.92;;;10.20;86.60;;;;;;9180634;19;20554;-76
2024/01/26 00:04:12;;;;;;;31.50;16.55;;;10.20;86.50;;;;;;9180551;19;20014;-74
2024/01/26 00:07:20;;;;;;;30.20;16.48;;;10.20;86.70;;;;;;9178978;19;20019;-76
2024/01/26 00:10:25;;;;;;;31.58;16.50;;;10.20;86.50;;;;;;9180744;19;20018;-75
2024/01/26 00:13:33;;;;;;;35.67;17.88;;;10.30;86.70;;;;;;9178491;19;20038;-76
2024/01/26 00:16:39;;;;;;;33.65;18.17;;;10.30;87.20;;;;;;9180327;19;20354;-75
2024/01/26 00:19:49;;;;;;;36.15;17.70;;;10.30;86.60;;;;;;9179579;19;20018;-74
2024/01/26 00:22:54;;;;;;;36.17;18.70;;;10.30;86.70;;;;;;9179280;19;20010;-76
2024/01/26 00:26:02;;;;;;;44.28;19.95;;;10.30;86.80;;;;;;9177579;19;20381;-74
2024/01/26 00:29:08;;;;;;;37.33;20.17;;;10.40;86.80;;;;;;9179264;19;20056;-75
2024/01/26 00:32:15;;;;;;;42.67;20.92;;;10.40;86.90;;;;;;9174408;19;20583;-75
2024/01/26 00:35:23;;;;;;;38.80;20.83;;;10.30;86.80;;;;;;9177644;19;20602;-77
2024/01/26 00:38:31;;;;;;;40.10;20.77;;;10.40;87.70;;;;;;9179679;19;20030;-76
2024/01/26 00:41:36;;;;;;;52.58;22.25;;;10.40;86.80;;;;;;9179124;19;20026;-77
2024/01/26 00:44:44;;;;;;;37.15;20.70;;;10.40;86.80;;;;;;9179238;19;20111;-75
2024/01/26 00:47:49;;;;;;;47.65;23.85;;;10.50;86.80;;;;;;9179022;19;20031;-76
2024/01/26 00:51:00;;;;;;;43.35;23.33;;;10.40;86.80;;;;;;9177712;19;20030;-77
2024/01/26 00:54:06;;;;;;;47.35;23.80;;;10.50;86.90;;;;;;9176635;19;20015;-75
2024/01/26 00:57:19;;;;;;;41.72;22.15;;;10.50;86.90;;;;;;9178985;19;20007;-77
2024/01/26 01:00:25;;;;;;;42.13;21.90;;;10.10;86.60;;;;;;9179008;19;20494;-75
2024/01/26 01:03:38;;;;;;;46.53;24.75;;;10.50;87.00;;;;;;9178452;19;20021;-75
2024/01/26 01:06:49;;;;;;;45.60;23.33;;;10.50;86.90;;;;;;9176291;19;20009;-74
2024/01/26 01:09:56;;;;;;;42.38;23.45;;;10.50;87.00;;;;;;9178820;19;20029;-75
2024/01/26 01:13:04;;;;;;;44.90;22.65;;;10.60;87.10;;;;;;9178339;19;20014;-76
2024/01/26 01:16:12;;;;;;;46.00;23.17;;;10.50;87.10;;;;;;9177054;19;20021;-76
2024/01/26 01:19:18;;;;;;;50.47;25.60;;;10.60;87.20;;;;;;9178982;19;20480;-78
2024/01/26 01:22:28;;;;;;;46.13;23.52;;;10.60;87.20;;;;;;9176394;19;20025;-77
2024/01/26 01:25:34;;;;;;;54.38;25.92;;;10.60;87.30;;;;;;9176689;19;20059;-76
2024/01/26 01:28:42;;;;;;;48.63;24.70;;;10.70;87.50;;;;;;9177255;19;20413;-77
2024/01/26 01:31:48;;;;;;;56.10;24.65;;;10.60;87.50;;;;;;9170183;19;20010;-77
2024/01/26 01:35:02;;;;;;;55.25;23.85;;;10.60;87.30;;;;;;9173860;19;20015;-75
2024/01/26 01:38:13;;;;;;;47.17;24.00;;;10.60;87.50;;;;;;9178755;19;20477;-75
2024/01/26 01:41:27;;;;;;;45.85;22.77;;;10.70;87.70;;;;;;9178833;19;20557;-76
2024/01/26 01:44:35;;;;;;;46.60;22.15;;;10.70;88.20;;;;;;9177817;19;20010;-76
2024/01/26 01:47:45;;;;;;;40.28;22.35;;;10.60;87.40;;;;;;9177791;19;20532;-74
2024/01/26 01:50:53;;;;;;;39.22;21.58;;;10.60;87.90;;;;;;9176675;19;20357;-76
2024/01/26 01:54:04;;;;;;;48.83;23.30;;;10.70;87.50;;;;;;9176680;19;20381;-76
2024/01/26 01:57:12;;;;;;;43.58;22.00;;;10.70;88.00;;;;;;9174912;19;20014;-75
2024/01/26 02:00:20;;;;;;;43.22;22.10;;;10.70;87.60;;;;;;9175749;19;20396;-75
2024/01/26 02:03:26;;;;;;;38.38;21.23;;;10.70;87.60;;;;;;9175244;19;20010;-75
2024/01/26 02:06:33;;;;;;;42.00;21.65;;;10.80;87.80;;;;;;9174357;19;20028;-76
2024/01/26 02:09:46;;;;;;;45.95;22.10;;;10.90;88.10;;;;;;9176778;19;20010;-76
2024/01/26 02:13:10;;;;;;;40.78;21.20;;;10.70;88.10;;;;;;9176075;19;20017;-76
2024/01/26 02:16:16;;;;;;;37.60;20.48;;;10.90;88.00;;;;;;9173252;19;20022;-75
2024/01/26 02:19:31;;;;;;;41.40;21.83;;;10.70;88.00;;;;;;9174027;19;20022;-76
2024/01/26 02:22:37;;;;;;;40.40;21.35;;;11.00;88.00;;;;;;9174724;19;20615;-75
2024/01/26 02:25:47;;;;;;;37.28;20.20;;;10.90;87.90;;;;;;9174766;19;20022;-75
2024/01/26 02:28:53;;;;;;;36.05;19.92;;;10.80;87.90;;;;;;9173978;19;20053;-74
2024/01/26 02:32:00;;;;;;;42.28;21.70;;;10.80;87.90;;;;;;9169790;19;20040;-75
2024/01/26 02:35:07;;;;;;;34.85;19.52;;;10.80;87.80;;;;;;9173977;19;20116;-75
2024/01/26 02:38:15;;;;;;;34.03;19.50;;;10.80;87.90;;;;;;9172112;19;20369;-75
2024/01/26 02:41:23;;;;;;;38.42;21.00;;;10.80;87.90;;;;;;9173922;19;20007;-75
2024/01/26 02:44:31;;;;;;;37.90;19.42;;;10.90;88.00;;;;;;9181101;19;20491;-75
2024/01/26 02:47:36;;;;;;;36.85;19.42;;;10.80;88.00;;;;;;9185147;19;20011;-75
2024/01/26 02:50:44;;;;;;;37.70;19.30;;;10.80;88.10;;;;;;9183298;19;20015;-76
2024/01/26 02:53:49;;;;;;;34.10;18.75;;;10.90;88.60;;;;;;9181519;19;20011;-75
2024/01/26 02:57:00;;;;;;;37.92;19.67;;;10.90;88.10;;;;;;9182930;19;20011;-76
2024/01/26 03:00:07;;;;;;;30.88;17.05;;;10.90;88.10;;;;;;9180159;19;20015;-75
2024/01/26 03:03:15;;;;;;;32.72;17.83;;;10.90;88.20;;;;;;9181205;19;20029;-76
2024/01/26 03:06:20;;;;;;;29.60;18.10;;;10.90;88.00;;;;;;9183181;19;20020;-75
2024/01/26 03:09:28;;;;;;;27.33;17.08;;;11.00;88.00;;;;;;9180549;19;20022;-73
2024/01/26 03:12:36;;;;;;;30.05;16.70;;;10.90;88.00;;;;;;9182709;19;20037;-75
2024/01/26 03:15:49;;;;;;;30.92;16.17;;;11.00;88.20;;;;;;9179579;19;20025;-76
2024/01/26 03:18:54;;;;;;;32.17;17.13;;;10.90;88.00;;;;;;9183000;19;20418;-75
2024/01/26 03:22:02;;;;;;;32.15;17.70;;;10.90;88.10;;;;;;9181549;19;20018;-75
2024/01/26 03:25:11;;;;;;;34.35;18.45;;;10.90;88.10;;;;;;9182043;19;20033;-75
2024/01/26 03:28:21;;;;;;;29.58;18.13;;;11.00;88.20;;;;;;9180521;19;20037;-75
2024/01/26 03:31:26;;;;;;;33.65;18.90;;;10.90;88.20;;;;;;9177829;19;21177;-73
2024/01/26 03:34:34;;;;;;;29.10;17.55;;;11.00;88.20;;;;;;9179900;19;20018;-74
2024/01/26 03:37:40;;;;;;;34.13;16.67;;;11.10;88.30;;;;;;9182454;19;20025;-76
2024/01/26 03:40:51;;;;;;;33.33;17.98;;;11.00;88.60;;;;;;9181099;19;20362;-74
2024/01/26 03:44:02;;;;;;;29.10;17.55;;;11.00;88.30;;;;;;9180783;19;20050;-75
2024/01/26 03:47:10;;;;;;;32.03;17.70;;;11.10;88.30;;;;;;9182040;19;20010;-75
2024/01/26 03:50:16;;;;;;;30.52;17.90;;;11.10;88.70;;;;;;9177741;19;20022;-76
2024/01/26 03:53:30;;;;;;;28.95;17.00;;;11.00;88.10;;;;;;9179712;19;20070;-77
2024/01/26 03:56:35;;;;;;;27.88;17.02;;;11.00;88.10;;;;;;9178756;19;20021;-75
2024/01/26 03:59:46;;;;;;;31.08;15.75;;;11.00;88.10;;;;;;9179993;19;20496;-76
2024/01/26 04:02:51;;;;;;;26.67;16.60;;;11.10;88.30;;;;;;9179590;19;20417;-75
2024/01/26 04:05:59;;;;;;;26.73;14.88;;;11.10;88.30;;;;;;9178221;19;20424;-75
2024/01/26 04:09:05;;;;;;;28.20;16.23;;;11.10;88.30;;;;;;9178795;19;20472;-75
2024/01/26 04:12:12;;;;;;;27.17;15.38;;;11.10;88.30;;;;;;9179675;19;20554;-75
2024/01/26 04:15:20;;;;;;;29.15;14.73;;;11.00;88.30;;;;;;9178927;19;20750;-75
2024/01/26 04:18:28;;;;;;;29.98;14.68;;;11.10;88.30;;;;;;9181136;19;20011;-75
2024/01/26 04:21:34;;;;;;;28.77;15.23;;;11.10;88.40;;;;;;9178771;19;20018;-76
2024/01/26 04:24:41;;;;;;;28.80;14.38;;;11.10;88.40;;;;;;9177273;19;20018;-76
2024/01/26 04:27:47;;;;;;;22.08;13.63;;;11.10;88.30;;;;;;9177548;19;20014;-75
2024/01/26 04:30:57;;;;;;;23.20;13.90;;;11.10;88.40;;;;;;9173105;19;20022;-75
2024/01/26 04:34:02;;;;;;;21.52;13.27;;;11.10;88.60;;;;;;9177263;19;20014;-76
2024/01/26 04:37:11;;;;;;;20.23;12.38;;;11.10;88.40;;;;;;9175452;19;20018;-75
2024/01/26 04:40:17;;;;;;;22.08;13.15;;;11.10;88.40;;;;;;9179716;19;20010;-74
2024/01/26 04:43:24;;;;;;;23.45;12.80;;;11.10;88.40;;;;;;9179620;19;20015;-75
2024/01/26 04:46:32;;;;;;;20.60;11.05;;;11.10;88.50;;;;;;9178375;19;20056;-76
2024/01/26 04:49:40;;;;;;;22.85;11.57;;;11.10;88.50;;;;;;9176722;19;20030;-75
2024/01/26 04:52:45;;;;;;;21.30;10.55;;;11.10;88.60;;;;;;9178928;19;20021;-73
2024/01/26 04:55:53;;;;;;;17.42;10.50;;;11.10;88.60;;;;;;9175732;19;20350;-74
2024/01/26 04:58:59;;;;;;;15.65;9.75;;;11.20;88.80;;;;;;9178808;19;20364;-74
2024/01/26 05:02:10;;;;;;;17.20;10.80;;;11.20;88.80;;;;;;9176674;19;20018;-76
2024/01/26 05:05:16;;;;;;;16.90;9.85;;;11.10;88.70;;;;;;9175344;19;20429;-75
2024/01/26 05:08:23;;;;;;;17.88;9.90;;;11.20;88.80;;;;;;9176903;19;20018;-75
2024/01/26 05:11:31;;;;;;;13.18;8.82;;;11.20;88.80;;;;;;9177905;19;20142;-75
2024/01/26 05:14:39;;;;;;;13.95;8.65;;;11.20;89.00;;;;;;9178022;19;20022;-76
2024/01/26 05:17:47;;;;;;;16.17;9.43;;;11.20;88.70;;;;;;9175964;19;20018;-75
2024/01/26 05:20:56;;;;;;;14.70;8.68;;;11.20;88.90;;;;;;9178649;19;20045;-75
2024/01/26 05:24:05;;;;;;;14.60;8.13;;;11.20;89.00;;;;;;9177337;19;20144;-75
2024/01/26 05:27:15;;;;;;;15.90;8.57;;;11.20;89.50;;;;;;9178254;19;20010;-75
2024/01/26 05:30:32;;;;;;;13.48;8.23;;;11.20;89.50;;;;;;9177524;19;20018;-75
2024/01/26 05:33:49;;;;;;;12.65;7.85;;;11.20;89.50;;;;;;9175188;19;20033;-77
2024/01/26 05:36:56;;;;;;;19.42;7.72;;;11.20;89.00;;;;;;9175370;19;20015;-75
2024/01/26 05:40:08;;;;;;;14.90;7.53;;;11.20;88.90;;;;;;9175922;19;20094;-77
2024/01/26 05:43:13;;;;;;;17.00;7.80;;;11.30;89.00;;;;;;9175580;19;20154;-76
2024/01/26 05:46:23;;;;;;;14.73;7.97;;;11.40;89.10;;;;;;9175200;19;20060;-75
2024/01/26 05:49:33;;;;;;;16.75;7.75;;;11.30;89.10;;;;;;9176393;19;20015;-75
2024/01/26 05:52:40;;;;;;;18.65;7.93;;;11.30;89.10;;;;;;9177084;19;20025;-76
2024/01/26 05:55:46;;;;;;;11.85;6.72;;;11.30;89.10;;;;;;9175734;19;20025;-74
2024/01/26 05:58:54;;;;;;;13.30;7.03;;;11.40;89.10;;;;;;9173843;19;20360;-76
2024/01/26 06:02:01;;;;;;;15.32;7.05;;;11.30;89.80;;;;;;9173531;19;20021;-76
2024/01/26 06:05:11;;;;;;;11.30;6.78;;;11.50;89.30;;;;;;9174690;19;20015;-75
2024/01/26 06:08:16;;;;;;;12.90;7.05;;;11.40;89.10;;;;;;9172850;19;20025;-75
2024/01/26 06:11:27;;;;;;;11.30;6.85;;;11.50;89.20;;;;;;9175660;19;21396;-77
2024/01/26 06:14:33;;;;;;;12.88;6.43;;;11.50;89.30;;;;;;9176451;19;20026;-76
2024/01/26 06:17:41;;;;;;;11.75;6.05;;;11.40;89.50;;;;;;9174499;19;20018;-76
2024/01/26 06:20:52;;;;;;;15.75;6.55;;;11.60;89.40;;;;;;9175536;19;20022;-76
2024/01/26 06:24:00;;;;;;;14.98;6.75;;;11.50;89.40;;;;;;9176739;19;20021;-75
2024/01/26 06:27:08;;;;;;;12.73;7.20;;;11.60;90.00;;;;;;9173574;19;20564;-77
2024/01/26 06:30:21;;;;;;;10.13;6.55;;;11.60;90.10;;;;;;9170888;19;20014;-76
2024/01/26 06:33:26;;;;;;;16.13;7.00;;;11.50;89.30;;;;;;9167366;19;20357;-76
2024/01/26 06:36:37;;;;;;;13.18;7.07;;;11.60;89.30;;;;;;9175152;19;20025;-75
2024/01/26 06:39:42;;;;;;;11.02;6.80;;;11.50;89.50;;;;;;9172166;19;20047;-76
2024/01/26 06:42:50;;;;;;;11.15;6.68;;;11.60;89.40;;;;;;9175755;19;20486;-76
2024/01/26 06:45:57;;;;;;;9.85;6.55;;;11.50;89.30;;;;;;9173321;19;20026;-75
2024/01/26 06:49:10;;;;;;;13.90;6.28;;;11.60;89.40;;;;;;9174887;19;20373;-76
2024/01/26 06:52:19;;;;;;;12.13;6.63;;;11.50;89.90;;;;;;9168440;19;20118;-75
2024/01/26 06:55:26;;;;;;;12.07;6.60;;;11.60;89.20;;;;;;9175164;19;20476;-76
2024/01/26 06:58:32;;;;;;;11.32;7.13;;;11.60;89.20;;;;;;9173191;19;20401;-77
2024/01/26 07:01:39;;;;;;;16.70;7.43;;;11.60;89.20;;;;;;9171996;19;20015;-75
2024/01/26 07:04:45;;;;;;;11.88;6.50;;;11.60;89.20;;;;;;9175218;19;20093;-75
2024/01/26 07:07:56;;;;;;;13.80;6.95;;;11.60;89.20;;;;;;9171419;19;20019;-76
2024/01/26 07:11:02;;;;;;;11.45;6.50;;;11.60;89.30;;;;;;9173566;19;20389;-75
2024/01/26 07:14:10;;;;;;;15.32;6.00;;;11.60;89.30;;;;;;9174189;19;20753;-75
2024/01/26 07:17:17;;;;;;;10.80;6.85;;;11.60;89.60;;;;;;9170980;19;20090;-73
2024/01/26 07:20:25;;;;;;;11.07;5.97;;;11.60;89.40;;;;;;9173609;19;20021;-76
2024/01/26 07:23:33;;;;;;;8.82;6.00;;;11.60;89.30;;;;;;9173859;19;20022;-77
2024/01/26 07:26:41;;;;;;;7.93;5.60;;;11.50;89.20;;;;;;9172501;19;20019;-77
2024/01/26 07:29:47;;;;;;;9.45;6.03;;;11.60;89.90;;;;;;9179178;19;20015;-76
2024/01/26 07:32:55;;;;;;;10.00;6.20;;;11.50;89.20;;;;;;9176149;19;20018;-76
2024/01/26 07:36:00;;;;;;;10.60;6.35;;;11.60;89.30;;;;;;9180392;19;20025;-76
2024/01/26 07:39:11;;;;;;;11.85;6.28;;;11.60;89.40;;;;;;9177491;19;20108;-78
2024/01/26 07:42:18;;;;;;;9.70;5.90;;;11.50;89.40;;;;;;9181759;19;20044;-77
2024/01/26 07:45:28;;;;;;;9.43;5.53;;;11.60;89.60;;;;;;9182241;19;20014;-75
2024/01/26 07:48:34;;;;;;;10.07;6.10;;;11.50;89.40;;;;;;9180975;19;20010;-76
2024/01/26 07:51:42;;;;;;;8.52;5.40;;;11.50;89.30;;;;;;9181756;19;20029;-76
2024/01/26 07:54:53;;;;;;;8.63;5.90;;;11.50;89.40;;;;;;9180050;19;20021;-76
2024/01/26 07:58:00;;;;;;;10.25;5.32;;;11.50;89.40;;;;;;9179463;19;20015;-76
2024/01/26 08:01:06;;;;;;;8.63;5.88;;;11.40;89.40;;;;;;9178882;19;20015;-76
2024/01/26 08:04:14;;;;;;;8.80;5.25;;;11.40;89.50;;;;;;9178976;19;20023;-77
2024/01/26 08:07:19;;;;;;;7.00;4.85;;;11.50;89.70;;;;;;9174761;19;20025;-78
2024/01/26 08:10:30;;;;;;;6.60;5.22;;;11.40;89.60;;;;;;9178353;19;20025;-76
2024/01/26 08:13:36;;;;;;;10.07;6.13;;;11.50;89.70;;;;;;9179905;19;20353;-76
2024/01/26 08:16:43;;;;;;;9.40;5.43;;;11.40;89.40;;;;;;9177732;19;20022;-74
2024/01/26 08:19:49;;;;;;;9.05;5.03;;;11.40;89.50;;;;;;9173826;19;20014;-75
2024/01/26 08:22:56;;;;;;;8.27;4.82;;;11.50;89.70;;;;;;9179590;19;20022;-73
2024/01/26 08:26:05;;;;;;;7.53;5.13;;;11.40;89.70;;;;;;9179894;19;20014;-75
2024/01/26 08:29:13;;;;;;;7.35;4.50;;;11.40;89.80;;;;;;9171897;19;20019;-75
2024/01/26 08:32:18;;;;;;;6.45;4.90;;;11.40;89.80;;;;;;9172305;19;20014;-75
2024/01/26 08:35:26;;;;;;;6.40;5.05;;;11.50;89.90;;;;;;9180084;19;20018;-76
2024/01/26 08:38:32;;;;;;;10.48;4.80;;;11.40;90.00;;;;;;9170417;19;20029;-75
2024/01/26 08:41:43;;;;;;;5.63;4.65;;;11.50;90.00;;;;;;9173659;19;20026;-75
2024/01/26 08:44:49;;;;;;;5.47;4.38;;;11.40;89.90;;;;;;9177925;19;20506;-76
2024/01/26 08:47:57;;;;;;;6.38;4.55;;;11.50;89.90;;;;;;9177200;19;20025;-75
2024/01/26 08:51:02;;;;;;;7.68;4.28;;;11.40;90.00;;;;;;9178116;19;20018;-75
2024/01/26 08:54:12;;;;;;;10.43;5.13;;;11.50;90.00;;;;;;9172803;19;20023;-75
2024/01/26 08:57:20;;;;;;;7.57;4.55;;;11.50;90.30;;;;;;9174042;19;20022;-75
2024/01/26 09:00:28;;;;;;;9.48;4.15;;;11.60;90.10;;;;;;9177024;19;20023;-75
2024/01/26 09:03:34;;;;;;;5.38;4.13;;;11.50;90.10;;;;;;9179736;19;20014;-77
2024/01/26 09:06:42;;;;;;;6.75;4.28;;;11.60;90.10;;;;;;9178366;19;20014;-77
2024/01/26 09:09:48;;;;;;;5.50;4.43;;;11.50;90.10;;;;;;9176887;19;20019;-75
2024/01/26 09:12:58;;;;;;;9.43;4.50;;;11.60;90.10;;;;;;9178412;19;20014;-76
2024/01/26 09:16:04;;;;;;;5.35;4.10;;;11.60;90.10;;;;;;9176609;19;20018;-75
2024/01/26 09:19:12;;;;;;;6.60;4.25;;;11.60;90.20;;;;;;9176983;19;20060;-76
2024/01/26 09:22:18;;;;;;;6.65;4.05;;;11.60;90.20;;;;;;9178035;19;20030;-76
2024/01/26 09:25:26;;;;;;;6.68;4.15;;;11.70;90.20;;;;;;9177556;19;20045;-79
2024/01/26 09:28:34;;;;;;;5.25;3.80;;;11.70;90.20;;;;;;9174695;19;20082;-76
2024/01/26 09:31:42;;;;;;;4.55;3.50;;;11.70;90.20;;;;;;9173502;19;20019;-76
2024/01/26 09:34:48;;;;;;;6.47;4.15;;;11.70;90.20;;;;;;9176478;19;20019;-79
2024/01/26 09:37:56;;;;;;;5.43;4.13;;;11.70;90.20;;;;;;9176297;19;20022;-77
2024/01/26 09:41:01;;;;;;;4.18;3.50;;;11.70;90.30;;;;;;9177598;19;20019;-76
2024/01/26 09:44:12;;;;;;;5.05;3.35;;;11.90;90.40;;;;;;9177091;19;20030;-74
2024/01/26 09:47:18;;;;;;;5.50;3.05;;;11.80;90.30;;;;;;9176899;19;20070;-76
2024/01/26 09:50:29;;;;;;;4.22;3.30;;;11.80;90.20;;;;;;9173094;19;20014;-76
2024/01/26 09:53:37;;;;;;;6.20;3.00;;;11.80;90.30;;;;;;9175366;19;20481;-77
2024/01/26 09:56:45;;;;;;;6.13;3.30;;;11.90;90.30;;;;;;9176272;19;20014;-77
2024/01/26 09:59:54;;;;;;;5.60;2.42;;;11.80;90.50;;;;;;9175007;19;20024;-74
2024/01/26 10:03:01;;;;;;;9.38;2.58;;;11.90;90.40;;;;;;9176347;19;20017;-75
2024/01/26 10:06:08;;;;;;;2.45;0.93;;;11.90;90.40;;;;;;9176776;19;20074;-75
2024/01/26 10:09:16;;;;;;;1.92;0.57;;;11.90;90.30;;;;;;9176053;19;20021;-76
2024/01/26 10:12:21;;;;;;;2.35;0.47;;;11.80;90.10;;;;;;9176378;19;20010;-75
2024/01/26 10:15:32;;;;;;;4.07;0.70;;;11.80;90.00;;;;;;9174198;19;20014;-74
2024/01/26 10:18:43;;;;;;;2.80;0.95;;;11.50;89.60;;;;;;9176716;19;20086;-75
2024/01/26 10:21:51;;;;;;;3.05;0.93;;;11.40;89.70;;;;;;9175501;19;20018;-75
2024/01/26 10:24:57;;;;;;;2.60;1.25;;;11.30;89.40;;;;;;9172280;19;20014;-75
2024/01/26 10:28:11;;;;;;;2.10;0.88;;;11.20;89.20;;;;;;9175633;19;20480;-74
2024/01/26 10:31:20;;;;;;;1.50;0.70;;;11.10;89.10;;;;;;9168872;19;20020;-75
2024/01/26 10:34:28;;;;;;;5.85;1.25;;;11.00;89.10;;;;;;9175599;19;20019;-75
2024/01/26 10:37:36;;;;;;;5.82;1.20;;;10.90;89.00;;;;;;9175860;19;20010;-76
2024/01/26 10:40:46;;;;;;;2.50;0.88;;;10.90;89.30;;;;;;9173258;19;20019;-75
2024/01/26 10:43:55;;;;;;;2.67;1.10;;;10.80;89.50;;;;;;9173034;19;20048;-74
2024/01/26 10:47:06;;;;;;;5.43;1.10;;;10.80;88.90;;;;;;9174387;19;20885;-76
2024/01/26 10:50:13;;;;;;;12.05;2.30;;;10.70;88.90;;;;;;9175443;19;20006;-76
2024/01/26 10:53:21;;;;;;;10.02;1.25;;;10.60;88.90;;;;;;9174203;19;20627;-75
2024/01/26 10:56:27;;;;;;;6.78;1.02;;;10.60;88.80;;;;;;9172451;19;20048;-75
2024/01/26 10:59:35;;;;;;;13.40;2.90;;;10.50;88.70;;;;;;9171747;19;20030;-76
2024/01/26 11:02:44;;;;;;;10.68;1.67;;;10.50;88.80;;;;;;9172122;19;20069;-76
2024/01/26 11:05:52;;;;;;;12.50;1.85;;;10.40;88.70;;;;;;9182976;19;20015;-75
2024/01/26 11:09:03;;;;;;;13.15;2.13;;;10.50;89.00;;;;;;9183863;19;20494;-75
2024/01/26 11:12:22;;;;;;;18.52;1.98;;;10.50;88.90;;;;;;9182732;19;20022;-75
2024/01/26 11:15:28;;;;;;;13.75;1.60;;;10.40;89.50;;;;;;9183376;19;20026;-76
2024/01/26 11:18:41;;;;;;;16.38;2.63;;;10.30;88.70;;;;;;9183337;19;20019;-74
2024/01/26 11:21:47;;;;;;;19.35;2.70;;;10.30;88.60;;;;;;9179666;19;20031;-75
2024/01/26 11:24:58;;;;;;;13.93;1.63;;;10.20;88.60;;;;;;9182818;19;20476;-75
2024/01/26 11:28:05;;;;;;;12.10;1.75;;;10.20;88.50;;;;;;9181750;19;20019;-76
2024/01/26 11:31:15;;;;;;;9.73;1.70;;;10.10;88.40;;;;;;9178989;19;20018;-76
2024/01/26 11:34:23;;;;;;;20.63;2.60;;;10.10;88.40;;;;;;9183188;19;20484;-76
2024/01/26 11:37:32;;;;;;;10.70;1.67;;;10.10;88.40;;;;;;9182658;19;20014;-77
2024/01/26 11:40:40;;;;;;;12.10;2.38;;;10.00;88.40;;;;;;9180797;19;20014;-75
2024/01/26 11:43:53;;;;;;;18.25;3.28;;;10.10;88.30;;;;;;9182569;19;20378;-75
2024/01/26 11:46:59;;;;;;;16.80;2.33;;;10.10;88.10;;;;;;9181139;19;20011;-76
2024/01/26 11:50:12;;;;;;;21.50;2.50;;;10.00;88.10;;;;;;9183071;19;20025;-76
2024/01/26 11:53:21;;;;;;;18.95;2.95;;;10.00;88.00;;;;;;9181740;19;20019;-75
2024/01/26 11:56:29;;;;;;;15.70;2.05;;;9.90;87.90;;;;;;9181693;19;20115;-76
2024/01/26 11:59:37;;;;;;;17.70;2.08;;;9.90;87.90;;;;;;9178697;19;20021;-76
2024/01/26 12:02:45;;;;;;;20.05;2.67;;;9.90;88.20;;;;;;9182302;19;20014;-76
2024/01/26 12:06:00;;;;;;;15.57;2.53;;;10.10;87.80;;;;;;9180468;19;20077;-76
2024/01/26 12:09:19;;;;;;;18.98;2.33;;;9.90;87.70;;;;;;9180524;19;20364;-74
2024/01/26 12:12:47;;;;;;;19.13;2.72;;;9.90;87.60;;;;;;9182361;19;20045;-77
2024/01/26 12:15:55;;;;;;;11.38;2.45;;;10.30;87.60;;;;;;9180071;19;20022;-76
2024/01/26 12:19:11;;;;;;;10.75;2.10;;;9.70;87.60;;;;;;9182514;19;20006;-77
2024/01/26 12:22:22;;;;;;;13.33;2.23;;;9.60;87.10;;;;;;9181653;19;20022;-73
2024/01/26 12:25:34;;;;;;;17.83;1.98;;;9.60;87.00;;;;;;9181141;19;20371;-77
2024/01/26 12:28:41;;;;;;;16.92;2.60;;;9.40;86.60;;;;;;9180889;19;20014;-77
2024/01/26 12:31:54;;;;;;;17.40;2.60;;;9.50;86.80;;;;;;9174846;19;20010;-75
2024/01/26 12:35:12;;;;;;;18.33;2.63;;;9.50;87.10;;;;;;9180953;19;20064;-77
2024/01/26 12:38:41;;;;;;;17.52;3.20;;;9.50;86.90;;;;;;9180487;19;20081;-76
2024/01/26 12:41:51;;;;;;;20.73;3.15;;;9.40;86.50;;;;;;9176807;19;20026;-77
2024/01/26 12:45:00;;;;;;;6.68;2.08;;;9.40;87.20;;;;;;9179582;19;20514;-75
2024/01/26 12:48:10;;;;;;;23.05;2.85;;;9.60;87.10;;;;;;9178851;19;20652;-76
2024/01/26 12:51:20;;;;;;;15.15;3.08;;;9.40;87.00;;;;;;9178700;19;20022;-76
2024/01/26 12:54:32;;;;;;;13.45;2.45;;;9.40;86.30;;;;;;9179833;19;20034;-75
2024/01/26 12:57:44;;;;;;;14.50;2.03;;;9.50;86.20;;;;;;9178800;19;20478;-76
2024/01/26 13:00:59;;;;;;;12.38;2.22;;;9.20;86.00;;;;;;9176300;19;20405;-76
2024/01/26 13:04:11;;;;;;;11.77;3.40;;;9.50;86.20;;;;;;9179483;19;20039;-76
2024/01/26 13:07:25;;;;;;;10.18;2.47;;;9.20;86.30;;;;;;9178018;19;20035;-76
2024/01/26 13:10:34;;;;;;;13.65;2.10;;;9.20;85.80;;;;;;9178952;19;20057;-75
2024/01/26 13:13:42;;;;;;;17.05;2.25;;;9.30;86.00;;;;;;9175695;19;20013;-75
2024/01/26 13:16:50;;;;;;;11.88;1.90;;;9.20;86.00;;;;;;9178460;19;20018;-76
2024/01/26 13:19:58;;;;;;;9.73;1.45;;;9.20;85.90;;;;;;9176943;19;20022;-74
2024/01/26 13:23:17;;;;;;;16.20;3.42;;;9.20;85.60;;;;;;9176784;19;20022;-75
2024/01/26 13:26:27;;;;;;;13.80;2.40;;;9.10;85.30;;;;;;9175557;19;20012;-75
2024/01/26 13:29:34;;;;;;;19.40;2.35;;;9.10;85.20;;;;;;9177214;19;20010;-77
2024/01/26 13:32:43;;;;;;;17.98;2.88;;;9.10;85.10;;;;;;9172624;19;20015;-77
2024/01/26 13:35:51;;;;;;;21.52;3.35;;;9.10;85.20;;;;;;9177105;19;20018;-76
2024/01/26 13:38:57;;;;;;;15.73;2.33;;;9.10;85.20;;;;;;9175335;19;20013;-75
2024/01/26 13:42:07;;;;;;;18.92;2.63;;;9.10;85.20;;;;;;9173486;19;20022;-75
2024/01/26 13:45:14;;;;;;;24.33;3.25;;;9.00;85.10;;;;;;9176805;19;20045;-75
2024/01/26 13:48:21;;;;;;;20.02;4.25;;;9.00;85.10;;;;;;9177148;19;20778;-75
2024/01/26 13:51:27;;;;;;;16.67;2.15;;;9.10;85.10;;;;;;9175350;19;20806;-76
2024/01/26 13:54:35;;;;;;;20.75;3.67;;;9.10;85.00;;;;;;9174649;19;20022;-75
2024/01/26 13:57:45;;;;;;;24.15;3.47;;;9.00;84.90;;;;;;9175187;19;20025;-78
2024/01/26 14:00:51;;;;;;;22.63;3.20;;;9.10;84.90;;;;;;9175202;19;20094;-76
2024/01/26 14:03:59;;;;;;;23.55;3.65;;;9.00;84.80;;;;;;9176967;19;20021;-73
2024/01/26 14:07:04;;;;;;;25.13;4.45;;;9.00;84.80;;;;;;9175215;19;20026;-75
2024/01/26 14:10:14;;;;;;;21.45;2.97;;;9.10;84.80;;;;;;9176198;19;20018;-76
2024/01/26 14:13:24;;;;;;;22.02;2.70;;;9.00;84.80;;;;;;9176557;19;20014;-75
2024/01/26 14:16:30;;;;;;;16.67;2.33;;;9.00;84.80;;;;;;9174878;19;20026;-74
2024/01/26 14:19:37;;;;;;;28.73;3.72;;;9.00;84.70;;;;;;9176479;19;20021;-75
2024/01/26 14:22:43;;;;;;;14.45;2.55;;;8.90;84.70;;;;;;9175196;19;20018;-75
2024/01/26 14:25:54;;;;;;;22.60;2.78;;;8.90;84.70;;;;;;9175853;19;20369;-76
2024/01/26 14:29:03;;;;;;;20.05;2.70;;;8.90;84.70;;;;;;9175029;19;20022;-75
2024/01/26 14:32:11;;;;;;;22.35;2.92;;;8.90;84.70;;;;;;9170539;19;20018;-75
2024/01/26 14:35:18;;;;;;;24.45;2.83;;;8.90;84.70;;;;;;9174142;19;20046;-75
2024/01/26 14:38:26;;;;;;;19.80;2.70;;;8.90;84.80;;;;;;9174490;19;20022;-75
2024/01/26 14:41:31;;;;;;;14.52;2.78;;;8.80;84.60;;;;;;9171559;19;20010;-74
2024/01/26 14:44:43;;;;;;;18.88;2.83;;;8.80;84.60;;;;;;9175356;19;20029;-75
2024/01/26 14:47:49;;;;;;;18.00;2.13;;;8.80;84.80;;;;;;9172866;19;20014;-73
2024/01/26 14:50:57;;;;;;;13.88;2.72;;;8.80;84.70;;;;;;9172316;19;20014;-75
2024/01/26 14:54:05;;;;;;;17.60;2.10;;;8.80;84.70;;;;;;9175301;19;20797;-75
2024/01/26 14:57:13;;;;;;;13.80;2.80;;;8.80;84.70;;;;;;9174797;19;20010;-75
2024/01/26 15:00:24;;;;;;;7.80;2.33;;;8.90;84.70;;;;;;9175113;19;20015;-75
2024/01/26 15:03:34;;;;;;;10.65;1.85;;;8.80;84.70;;;;;;9170754;19;20026;-76
2024/01/26 15:06:39;;;;;;;15.82;1.98;;;8.80;84.60;;;;;;9170413;19;20508;-75
2024/01/26 15:09:47;;;;;;;12.52;1.65;;;8.80;84.70;;;;;;9174551;19;20385;-76
2024/01/26 15:12:52;;;;;;;9.75;2.17;;;8.80;84.60;;;;;;9172296;19;20015;-76
2024/01/26 15:16:03;;;;;;;24.13;2.95;;;8.80;84.80;;;;;;9165378;19;20014;-74
2024/01/26 15:19:08;;;;;;;24.63;2.97;;;8.70;84.60;;;;;;9170690;19;20909;-75
2024/01/26 15:22:16;;;;;;;16.88;2.08;;;8.70;84.50;;;;;;9167325;19;20029;-74
2024/01/26 15:25:22;;;;;;;16.30;2.30;;;8.70;84.50;;;;;;9171091;19;20022;-76
2024/01/26 15:28:29;;;;;;;16.77;2.22;;;8.70;84.30;;;;;;9169599;19;20007;-75
2024/01/26 15:31:38;;;;;;;15.48;2.75;;;8.70;84.40;;;;;;9165064;19;20559;-76
2024/01/26 15:34:45;;;;;;;14.05;2.10;;;8.70;84.40;;;;;;9166825;19;20018;-74
2024/01/26 15:37:51;;;;;;;16.45;2.53;;;8.70;84.50;;;;;;9166986;19;20018;-75
2024/01/26 15:41:00;;;;;;;22.65;2.25;;;8.70;84.40;;;;;;9172124;19;20011;-75
2024/01/26 15:44:09;;;;;;;17.55;4.00;;;8.60;84.30;;;;;;9168682;19;20116;-76
2024/01/26 15:47:19;;;;;;;24.13;4.32;;;8.60;84.40;;;;;;9169595;19;20010;-76
2024/01/26 15:50:24;;;;;;;26.00;3.40;;;8.70;84.40;;;;;;9170215;19;20472;-75
2024/01/26 15:53:32;;;;;;;10.57;2.17;;;8.60;84.30;;;;;;9178067;19;20029;-75
2024/01/26 15:56:38;;;;;;;13.02;2.42;;;8.70;84.30;;;;;;9180606;19;20595;-75
2024/01/26 15:59:45;;;;;;;24.40;3.63;;;8.60;84.30;;;;;;9180556;19;20015;-75
2024/01/26 16:02:54;;;;;;;30.20;4.40;;;8.60;84.20;;;;;;9176692;19;20389;-75
2024/01/26 16:06:01;;;;;;;26.10;3.17;;;8.60;84.20;;;;;;9178817;19;20015;-76
2024/01/26 16:09:07;;;;;;;23.58;3.28;;;8.60;84.20;;;;;;9176979;19;20389;-77